Flight Track Log - Related Links

Times and Time Zones

All times are in EDT time to prevent confusion due to time zone crossing. See the DAL184 flight status page for this flight to view local times or setup timezone preferences in your user account.

Time Position Orientation Groundspeed Altitude Reporting Facility
EDT Latitude Longitude Course Direction KTS MPH feet Rate Location/Type
Mon 06:48:32 PM 40.6390 -73.7830 151° Southeast  Level FlightAware ADS-B
Mon 06:49:31 PM 40.6380 -73.7830 180° South 9 10 Level FlightAware ADS-B
Mon 06:51:11 PM 40.6370 -73.7830 180° South 9 10 Level FlightAware ADS-B
Mon 06:53:00 PM 40.7681 -73.5488 90° East  Level Estimated
Mon 06:53:13 PM 40.6360 -73.7830 90° East 2 2  Level FlightAware ADS-B
Mon 06:55:00 PM 40.7647 -73.5531 90° East  Level Estimated
Mon 06:56:00 PM 40.8366 -73.4239 90° East  Level Estimated
Mon 06:57:00 PM 40.9085 -73.2943 97° East  Level Estimated
Mon 06:58:00 PM 40.9801 -73.1645 90° East  Level Estimated
Mon 06:58:28 PM 40.6350 -73.7830 90° East 13 15  Level FlightAware ADS-B
Mon 06:59:52 PM 40.6340 -73.7830 180° South 18 21 Level FlightAware ADS-B
Mon 07:01:05 PM 40.6340 -73.7810 90° East 9 10 Level FlightAware ADS-B
Mon 07:01:56 PM 40.6330 -73.7810 180° South Level FlightAware ADS-B
Mon 07:04:00 PM 40.6000 -73.4449 90° East  Level FlightAware Approximate
Mon 07:05:00 PM 40.5785 -73.2924 105° East  Level FlightAware Approximate
Mon 07:06:00 PM 40.5578 -73.1352 97° East  Level FlightAware Approximate
Mon 07:07:00 PM 40.5574 -72.9780 66° East  Level FlightAware Approximate
Mon 07:08:00 PM 40.5974 -72.8271 72° East  Level FlightAware Approximate
Mon 07:08:42 PM 40.6320 -73.7800 180° South 22 25  Level FlightAware ADS-B
Mon 07:08:59 PM 40.6310 -73.7800 180° South 26 30 Level FlightAware ADS-B
Mon 07:09:12 PM 40.6310 -73.7810 270° West 29 33 Level FlightAware ADS-B
Mon 07:09:40 PM 40.6300 -73.7820 217° Southwest 24 28 Level FlightAware ADS-B
Mon 07:09:56 PM 40.6290 -73.7820 180° South 18 21 Level FlightAware ADS-B
Mon 07:10:44 PM 40.6280 -73.7830 217° Southwest 17 20 Level FlightAware ADS-B
Mon 07:11:38 PM 40.6270 -73.7830 180° South 12 14 Level FlightAware ADS-B
Mon 07:12:18 PM 40.6260 -73.7840 217° Southwest 18 21 10 Level FlightAware ADS-B
Mon 07:13:02 PM 40.6260 -73.7850 270° West 2 2 11 Level FlightAware ADS-B
Mon 07:14:41 PM 40.6250 -73.7850 180° South 11 13 12 Level FlightAware ADS-B
Mon 07:16:12 PM 40.6240 -73.7860 217° Southwest 2 2 15 Level FlightAware ADS-B
Mon 07:17:24 PM 40.6230 -73.7860 180° South 13 15 20 Level FlightAware ADS-B
Mon 07:18:31 PM 40.6230 -73.7860 180° South 12 14 26 Level FlightAware ADS-B
Mon 07:18:47 PM 40.6220 -73.7860 180° South 16 18 36 Level FlightAware ADS-B
Mon 07:19:02 PM 40.6220 -73.7850 90° East 18 21 39 Level FlightAware ADS-B
Mon 07:19:30 PM 40.6230 -73.7850 360° North 44 Level FlightAware ADS-B
Mon 07:20:57 PM 40.6290 -73.7800 32° Northeast 110 127 55 Level FlightAware ADS-B
Mon 07:21:19 PM 40.6410 -73.7710 30° Northeast 156 180 100 1,435 Climbing FlightAware ADS-B
Mon 07:21:43 PM 40.6560 -73.7590 31° Northeast 155 178 1,100 2,500 Climbing FlightAware ADS-B
Mon 07:21:55 PM 40.6630 -73.7500 44° Northeast 160 184 1,600 1,565 Climbing FlightAware ADS-B
Mon 07:22:06 PM 40.6660 -73.7410 66° East 175 201 1,700 774 Climbing FlightAware ADS-B
Mon 07:22:26 PM 40.6680 -73.7180 83° East 203 234 2,000 938 Climbing FlightAware ADS-B
Mon 07:22:38 PM 40.6680 -73.7010 90° East 224 258 2,200 1,350 Climbing FlightAware ADS-B
Mon 07:23:06 PM 40.6640 -73.6590 97° East 261 300 2,900 1,811 Climbing FlightAware ADS-B
Mon 07:23:31 PM 40.6570 -73.6190 103° East 277 319 3,800 2,423 Climbing FlightAware ADS-B
Mon 07:23:58 PM 40.6500 -73.5740 102° East 287 330 5,000 2,679 Climbing FlightAware ADS-B
Mon 07:24:27 PM 40.6420 -73.5220 101° East 296 341 6,300 2,727 Climbing FlightAware ADS-B
Mon 07:24:53 PM 40.6350 -73.4760 101° East 301 346 7,500 2,927 Climbing FlightAware ADS-B
Mon 07:25:08 PM 40.6307 -73.4513 103° East 300 345 8,300 3,097 Climbing FlightAware ADS-B
Mon 07:25:24 PM 40.6261 -73.4229 102° East 299 344 9,100 1,935 Climbing FlightAware ADS-B
Mon 07:25:39 PM 40.6213 -73.3931 102° East 315 362 9,300 1,029 Climbing FlightAware ADS-B
Mon 07:25:59 PM 40.6148 -73.3523 102° East 340 391 9,700 1,000 Climbing FlightAware ADS-B
Mon 07:26:15 PM 40.6097 -73.3203 102° East 357 411 9,900 1,080 Climbing FlightAware ADS-B
Mon 07:26:49 PM 40.5973 -73.2440 102° East 389 448 10,600 1,875 Climbing FlightAware ADS-B
Mon 07:27:19 PM 40.5859 -73.1745 102° East 390 449 11,900 2,516 Climbing FlightAware ADS-B
Mon 07:27:51 PM 40.5737 -73.0998 102° East 393 452 13,200 2,189 Climbing FlightAware ADS-B
Mon 07:28:33 PM 40.5637 -73.0000 97° East 397 457 14,600 2,036 Climbing FlightAware ADS-B
Mon 07:28:47 PM 40.5702 -72.9672 75° East 394 453 15,100 1,957 Climbing FlightAware ADS-B
Mon 07:29:19 PM 40.5897 -72.8948 70° East 397 457 16,100 1,733 Climbing FlightAware ADS-B
Mon 07:30:17 PM 40.6241 -72.7591 71° East 411 473 17,700 1,742 Climbing FlightAware ADS-B
Mon 07:30:52 PM 40.6457 -72.6738 72° East 416 479 18,800 1,727 Climbing FlightAware ADS-B
Mon 07:31:23 PM 40.6649 -72.5981 71° East 425 489 19,600 1,433 Climbing FlightAware ADS-B
Mon 07:31:59 PM 40.6872 -72.5098 72° East 434 499 20,400 1,273 Climbing FlightAware ADS-B
Mon 07:32:29 PM 40.7058 -72.4360 72° East 438 504 21,000 1,477 Climbing FlightAware ADS-B
Mon 07:33:04 PM 40.7280 -72.3480 72° East 444 511 22,000 1,481 Climbing FlightAware ADS-B
Mon 07:33:50 PM 40.7593 -72.2224 72° East 453 521 23,000 1,350 Climbing FlightAware ADS-B
Mon 07:34:24 PM 40.7814 -72.1333 72° East 453 521 23,800 1,333 Climbing FlightAware ADS-B
Mon 07:35:02 PM 40.8062 -72.0337 72° East 457 526 24,600 1,116 Climbing FlightAware ADS-B
Mon 07:35:50 PM 40.8380 -71.9060 72° East 465 535 25,400 968 Climbing FlightAware ADS-B
Mon 07:36:35 PM 40.8680 -71.7830 72° East 475 547 26,100 977 Climbing FlightAware ADS-B
Mon 07:37:16 PM 40.8950 -71.6730 72° East 478 550 26,800 1,111 Climbing FlightAware ADS-B
Mon 07:37:56 PM 40.9230 -71.5550 73° East 481 554 27,600 903 Climbing FlightAware ADS-B
Mon 07:38:49 PM 40.9560 -71.4220 72° East 480 552 28,200 404 Climbing FlightAware ADS-B
Mon 07:39:25 PM 40.9770 -71.3360 72° East 480 552 28,200 1,333 Level FlightAware ADS-B
Mon 07:40:10 PM 41.0220 -71.1900 68° East 483 556 30,000 1,835 Climbing FlightAware ADS-B
Mon 07:40:50 PM 41.0880 -71.1110 42° Northeast 474 545 30,800 1,245 Climbing FlightAware ADS-B
Mon 07:41:03 PM 41.1134 -71.0876 35° Northeast 481 554 31,100 1,347 Climbing FlightAware ADS-B
Mon 07:41:39 PM 41.1790 -71.0237 36° Northeast 476 548 31,900 1,220 Climbing FlightAware ADS-B
Mon 07:43:01 PM 41.3234 -70.8843 36° Northeast 476 548 33,500 1,021 Climbing FlightAware ADS-B
Mon 07:44:00 PM 41.4250 -70.7850 36° Northeast 465 535 34,300 788 Climbing FlightAware ADS-B
Mon 07:44:40 PM 41.4880 -70.7240 36° Northeast 464 534 34,800 873 Climbing FlightAware ADS-B
Mon 07:45:50 PM 41.5920 -70.6230 36° Northeast 462 532 35,900 595 Climbing FlightAware ADS-B
Mon 07:46:31 PM 41.6520 -70.5650 36° Northeast 462 532 35,900  Level FlightAware ADS-B
Mon 07:47:19 PM 41.7220 -70.4960 36° Northeast 462 532 35,900 1,214 Level FlightAware ADS-B
Mon 07:47:55 PM 41.8300 -70.3890 36° Northeast 464 534 37,600 1,636 Climbing FlightAware ADS-B
Mon 07:48:36 PM 41.9030 -70.3170 36° Northeast 459 528 38,000 600 Climbing FlightAware ADS-B
Mon 07:49:15 PM 41.9700 -70.2510 36° Northeast 459 528 38,400 532 Climbing FlightAware ADS-B
Mon 07:49:55 PM 42.0360 -70.1860 36° Northeast 461 531 38,700 450 Climbing FlightAware ADS-B
Mon 07:50:35 PM 42.1110 -70.1110 37° Northeast 461 531 39,000 212 Climbing FlightAware ADS-B
Mon 07:51:20 PM 42.1880 -70.0340 37° Northeast 461 531 39,000  Level FlightAware ADS-B
Mon 07:51:55 PM 42.2490 -69.9730 37° Northeast 463 533 39,000  Level FlightAware ADS-B
Mon 07:52:35 PM 42.3170 -69.9040 37° Northeast 465 535 39,000  Level FlightAware ADS-B
Mon 07:53:15 PM 42.3870 -69.8340 36° Northeast 464 534 39,000  Level FlightAware ADS-B
Mon 07:54:00 PM 42.4630 -69.7570 37° Northeast 465 535 39,000  Level FlightAware ADS-B
Mon 07:54:45 PM 42.5430 -69.6760 37° Northeast 465 535 39,000  Level FlightAware ADS-B
Mon 07:55:40 PM 42.6360 -69.5810 37° Northeast 465 535 39,000  Level FlightAware ADS-B
Mon 07:56:23 PM 42.7060 -69.5100 37° Northeast 464 534 39,000  Level FlightAware ADS-B
Mon 07:57:05 PM 42.7760 -69.4380 37° Northeast 463 533 39,000  Level FlightAware ADS-B
Mon 07:57:45 PM 42.8500 -69.3630 37° Northeast 464 534 39,000  Level FlightAware ADS-B
Mon 07:58:30 PM 42.9250 -69.2850 37° Northeast 465 535 39,000  Level FlightAware ADS-B
Mon 07:59:10 PM 42.9960 -69.2120 37° Northeast 465 535 39,000  Level FlightAware ADS-B
Mon 07:59:55 PM 43.0730 -69.1320 37° Northeast 466 536 39,000  Level FlightAware ADS-B
Mon 08:00:15 PM 43.1080 -69.0960 37° Northeast 466 536 39,000  Level FlightAware ADS-B
Mon 08:01:10 PM 43.2020 -68.9970 38° Northeast 468 539 39,000  Level FlightAware ADS-B
Mon 08:01:58 PM 43.2750 -68.9220 37° Northeast 468 539 39,000  Level FlightAware ADS-B
Mon 08:02:38 PM 43.3420 -68.8520 37° Northeast 469 540 39,000  Level FlightAware ADS-B
Mon 08:03:27 PM 43.4140 -68.7770 37° Northeast 469 540 39,000  Level FlightAware ADS-B
Mon 08:04:03 PM 43.4670 -68.7220 37° Northeast 469 540 39,000  Level FlightAware ADS-B
Mon 08:04:39 PM 43.5200 -68.6670 37° Northeast 469 540 39,000  Level FlightAware ADS-B
Mon 08:06:06 PM 43.7130 -68.4580 38° Northeast 472 543 39,000  Level FlightAware ADS-B
Mon 08:06:46 PM 43.7840 -68.3830 37° Northeast 467 537 39,000  Level FlightAware ADS-B
Mon 08:07:31 PM 43.8580 -68.2970 40° Northeast 473 544 39,000  Level FlightAware ADS-B
Mon 08:08:15 PM 43.9290 -68.2040 43° Northeast 466 536 39,000  Level FlightAware ADS-B
Mon 08:08:56 PM 43.9930 -68.1200 43° Northeast 468 539 39,000  Level FlightAware ADS-B
Mon 08:09:30 PM 44.0490 -68.0470 43° Northeast 468 539 39,000  Level FlightAware ADS-B
Mon 08:10:11 PM 44.1130 -67.9630 43° Northeast 469 540 39,000  Level FlightAware ADS-B
Mon 08:10:56 PM 44.1850 -67.8690 43° Northeast 469 540 39,000  Level FlightAware ADS-B
Mon 08:11:35 PM 44.2500 -67.7820 44° Northeast 475 547 39,000  Level FlightAware ADS-B
Mon 08:12:15 PM 44.3130 -67.6980 44° Northeast 475 547 39,000  Level FlightAware ADS-B
Mon 08:12:59 PM 44.3830 -67.6050 44° Northeast 474 545 39,000  Level FlightAware ADS-B
Mon 08:13:35 PM 44.4400 -67.5290 44° Northeast 474 545 39,000  Level FlightAware ADS-B
Mon 08:14:15 PM 44.5050 -67.4430 43° Northeast 473 544 39,000  Level FlightAware ADS-B
Mon 08:14:59 PM 44.5740 -67.3500 44° Northeast 477 549 39,000  Level FlightAware ADS-B
Mon 08:15:39 PM 44.6380 -67.2630 44° Northeast 478 550 39,000  Level FlightAware ADS-B
Mon 08:16:19 PM 44.7010 -67.1780 44° Northeast 479 551 39,000  Level FlightAware ADS-B
Mon 08:17:04 PM 44.7730 -67.0810 44° Northeast 478 550 39,000  Level FlightAware ADS-B
Mon 08:17:44 PM 44.8360 -66.9940 44° Northeast 477 549 39,000  Level FlightAware ADS-B
Mon 08:18:28 PM 44.9040 -66.9020 44° Northeast 476 548 39,000  Level FlightAware ADS-B
Mon 08:19:08 PM 44.9690 -66.8130 44° Northeast 475 547 39,000  Level FlightAware ADS-B
Mon 08:19:52 PM 45.0380 -66.7190 44° Northeast 477 549 39,000  Level FlightAware ADS-B
Mon 08:20:32 PM 45.0990 -66.6340 45° Northeast 477 549 39,000  Level FlightAware ADS-B
Mon 08:21:12 PM 45.1650 -66.5430 44° Northeast 478 550 39,000  Level FlightAware ADS-B
Mon 08:21:56 PM 45.2330 -66.4490 44° Northeast 478 550 39,000  Level FlightAware ADS-B
Mon 08:22:31 PM 45.2900 -66.3690 45° Northeast 478 550 39,000  Level FlightAware ADS-B
Mon 08:23:16 PM 45.3600 -66.2710 45° Northeast 478 550 39,000  Level FlightAware ADS-B
Mon 08:23:55 PM 45.4230 -66.1820 45° Northeast 478 550 39,000  Level FlightAware ADS-B
Mon 08:24:32 PM 45.4780 -66.1060 44° Northeast 480 552 39,000  Level FlightAware ADS-B
Mon 08:25:12 PM 45.5440 -66.0130 45° Northeast 479 551 39,000  Level FlightAware ADS-B
Mon 08:25:52 PM 45.6060 -65.9240 45° Northeast 480 552 39,000  Level FlightAware ADS-B
Mon 08:26:32 PM 45.6700 -65.8340 44° Northeast 480 552 39,000  Level FlightAware ADS-B
Mon 08:27:12 PM 45.7320 -65.7450 45° Northeast 481 554 39,000  Level FlightAware ADS-B
Mon 08:27:56 PM 45.8000 -65.6470 45° Northeast 480 552 39,000  Level FlightAware ADS-B
Mon 08:28:36 PM 45.8630 -65.5570 45° Northeast 481 554 39,000  Level FlightAware ADS-B
Mon 08:29:16 PM 45.9270 -65.4650 45° Northeast 482 555 39,000  Level FlightAware ADS-B
Mon 08:29:57 PM 45.9880 -65.3770 45° Northeast 482 555 39,000  Level FlightAware ADS-B
Mon 08:30:50 PM 46.0680 -65.2620 45° Northeast 482 555 39,000  Level FlightAware ADS-B
Mon 08:31:27 PM 46.1170 -65.1900 46° Northeast 482 555 39,000  Level FlightAware ADS-B
Mon 08:32:15 PM 46.1810 -65.0970 45° Northeast 482 555 39,000  Level FlightAware ADS-B
Mon 08:32:52 PM 46.2310 -65.0260 44° Northeast 482 555 39,000  Level FlightAware ADS-B
Mon 08:33:29 PM 46.2810 -64.9540 45° Northeast 482 555 39,000  Level FlightAware ADS-B
Mon 08:34:17 PM 46.3450 -64.8610 45° Northeast 482 555 39,000  Level FlightAware ADS-B
Mon 08:35:17 PM 46.4250 -64.7440 45° Northeast 482 555 39,000  Level FlightAware ADS-B
Mon 08:35:53 PM 46.4740 -64.6740 45° Northeast 482 555 39,000  Level FlightAware ADS-B
Mon 08:36:29 PM 46.5220 -64.6040 45° Northeast 482 555 39,000  Level FlightAware ADS-B
Mon 08:37:15 PM 46.5840 -64.5140 45° Northeast 482 555 39,000  Level FlightAware ADS-B
Mon 08:37:51 PM 46.6320 -64.4440 45° Northeast 482 555 39,000  Level FlightAware ADS-B
Mon 08:38:27 PM 46.6800 -64.3740 45° Northeast 482 555 39,000  Level FlightAware ADS-B
Mon 08:39:15 PM 46.7440 -64.2800 45° Northeast 482 555 39,000  Level FlightAware ADS-B
Mon 08:39:54 PM 46.7970 -64.2040 44° Northeast 482 555 39,000  Level FlightAware ADS-B
Mon 08:40:35 PM 46.9833 -63.8833 44° Northeast 490 564 39,000  Level Moncton Center
Mon 08:41:35 PM 47.0667 -63.7333 51° Northeast 490 564 39,000  Level Moncton Center
Mon 08:42:35 PM 47.1667 -63.6167 38° Northeast 490 564 39,000  Level Moncton Center
Mon 08:43:35 PM 47.2667 -63.4333 51° Northeast 490 564 39,000  Level Moncton Center
Mon 08:44:35 PM 47.3500 -63.3167 43° Northeast 490 564 39,000  Level Moncton Center
Mon 08:45:35 PM 47.4500 -63.1667 45° Northeast 490 564 39,000  Level Moncton Center
Mon 08:46:35 PM 47.5333 -63.0000 53° Northeast 500 575 39,000  Level Moncton Center
Mon 08:47:35 PM 47.6333 -62.8500 45° Northeast 490 564 39,000  Level Moncton Center
Mon 08:48:35 PM 47.7167 -62.7000 50° Northeast 490 564 39,000  Level Moncton Center
Mon 08:49:35 PM 47.8167 -62.5500 45° Northeast 500 575 39,000  Level Moncton Center
Mon 08:50:35 PM 47.9167 -62.4000 45° Northeast 500 575 39,000  Level Moncton Center
Mon 08:51:35 PM 48.0167 -62.2500 45° Northeast 500 575 39,000  Level Moncton Center
Mon 08:52:35 PM 48.1000 -62.0833 53° Northeast 500 575 39,000  Level Moncton Center
Mon 08:53:35 PM 48.2000 -61.9333 45° Northeast 500 575 39,000  Level Moncton Center
Mon 08:54:35 PM 48.2833 -61.7833 50° Northeast 500 575 39,000  Level Moncton Center
Mon 08:55:35 PM 48.3833 -61.6167 48° Northeast 500 575 39,000  Level Moncton Center
Mon 08:56:35 PM 48.4667 -61.4667 50° Northeast 500 575 39,000  Level Moncton Center
Mon 08:57:35 PM 48.5667 -61.3167 45° Northeast 510 587 39,000  Level Moncton Center
Mon 08:58:35 PM 48.6667 -61.1500 48° Northeast 500 575 39,000  Level Moncton Center
Mon 09:04:46 PM 49.2540 -60.1650 48° Northeast 517 595 39,000  Level FlightAware ADS-B
Mon 09:05:26 PM 49.3180 -60.0510 49° Northeast 519 597 39,000  Level FlightAware ADS-B
Mon 09:06:21 PM 49.4020 -59.9030 49° Northeast 516 594 39,000  Level FlightAware ADS-B
Mon 09:06:57 PM 49.4500 -59.8180 49° Northeast 516 594 39,000  Level FlightAware ADS-B
Mon 09:07:33 PM 49.4980 -59.7330 49° Northeast 516 594 39,000  Level FlightAware ADS-B
Mon 09:08:16 PM 49.5800 -59.5820 50° Northeast 517 595 39,000  Level FlightAware ADS-B
Mon 09:09:14 PM 49.6670 -59.4260 49° Northeast 517 595 39,000  Level FlightAware ADS-B
Mon 09:09:51 PM 49.7310 -59.3080 50° Northeast 517 595 39,000  Level FlightAware ADS-B
Mon 09:10:30 PM 49.7840 -59.2140 49° Northeast 517 595 39,000  Level FlightAware ADS-B
Mon 09:11:48 PM 49.8960 -59.0100 50° Northeast 517 595 39,000  Level FlightAware ADS-B
Mon 09:12:24 PM 49.9440 -58.9240 49° Northeast 517 595 39,000  Level FlightAware ADS-B
Mon 09:13:12 PM 50.0080 -58.8090 49° Northeast 517 595 39,000  Level FlightAware ADS-B
Mon 09:13:48 PM 50.0560 -58.7230 49° Northeast 517 595 39,000 811 Level FlightAware ADS-B
Mon 09:14:26 PM 50.1300 -58.4990 63° Northeast 530 610 40,000 723 Climbing FlightAware ADS-B
Mon 09:15:11 PM 50.1910 -58.3610 55° Northeast 529 609 40,000  Level FlightAware ADS-B
Mon 09:15:51 PM 50.2510 -58.2280 55° Northeast 526 605 40,000  Level FlightAware ADS-B
Mon 09:16:48 PM 50.3240 -58.0630 55° Northeast 526 605 40,000  Level FlightAware ADS-B
Mon 09:17:21 PM 50.3720 -57.9540 55° Northeast 526 605 40,000  Level FlightAware ADS-B
Mon 09:18:11 PM 50.4440 -57.7890 56° Northeast 521 600 40,000  Level FlightAware ADS-B
Mon 09:18:50 PM 50.4940 -57.6760 55° Northeast 521 600 40,000  Level FlightAware ADS-B
Mon 09:19:49 PM 50.5730 -57.4950 55° Northeast 522 601 40,000  Level FlightAware ADS-B
Mon 09:20:33 PM 50.6300 -57.3630 56° Northeast 523 602 40,000  Level FlightAware ADS-B
Mon 09:21:11 PM 50.6860 -57.2300 56° Northeast 528 608 40,000  Level FlightAware ADS-B
Mon 09:22:16 PM 50.7730 -57.0260 56° Northeast 528 608 40,000  Level FlightAware ADS-B
Mon 09:22:56 PM 50.8310 -56.8890 56° Northeast 529 609 40,000  Level FlightAware ADS-B
Mon 09:23:42 PM 50.8850 -56.7610 56° Northeast 529 609 40,000  Level FlightAware ADS-B
Mon 09:24:18 PM 50.9270 -56.6620 56° Northeast 529 609 40,000  Level FlightAware ADS-B
Mon 09:25:07 PM 50.9840 -56.5280 56° Northeast 529 609 40,000  Level FlightAware ADS-B
Mon 09:25:43 PM 51.0260 -56.4290 56° Northeast 529 609 40,000  Level FlightAware ADS-B
Mon 09:26:31 PM 51.0820 -56.2980 56° Northeast 529 609 40,000  Level FlightAware ADS-B
Mon 09:27:08 PM 51.1250 -56.1960 56° Northeast 529 609 40,000  Level FlightAware ADS-B
Mon 09:27:45 PM 51.1680 -56.0940 56° Northeast 529 609 40,000  Level FlightAware ADS-B
Mon 09:28:21 PM 51.2100 -55.9950 56° Northeast 529 609 40,000  Level FlightAware ADS-B
Mon 09:29:09 PM 51.2660 -55.8630 56° Northeast 529 609 40,000  Level FlightAware ADS-B
Mon 09:29:45 PM 51.3080 -55.7640 56° Northeast 529 609 40,000  Level FlightAware ADS-B
Mon 09:30:21 PM 51.3490 -55.6640 57° Northeast 529 609 40,000  Level FlightAware ADS-B
Mon 09:31:10 PM 51.4060 -55.5290 56° Northeast 529 609 40,000  Level FlightAware ADS-B
Mon 09:31:47 PM 51.4490 -55.4270 56° Northeast 529 609 40,000  Level FlightAware ADS-B
Mon 09:32:35 PM 51.5050 -55.2940 56° Northeast 529 609 40,000  Level FlightAware ADS-B
Mon 09:34:01 PM 51.6833 -54.7000 56° Northeast 530 610 40,000  Level Gander Center
Mon 09:35:01 PM 51.7833 -54.4667 55° Northeast 540 621 40,000  Level Gander Center
Mon 09:36:01 PM 51.8500 -54.2667 62° Northeast 540 621 40,000  Level Gander Center
Mon 09:37:01 PM 51.9500 -54.0333 55° Northeast 540 621 40,000  Level Gander Center
Mon 09:38:01 PM 52.0167 -53.8500 59° Northeast 540 621 40,000  Level Gander Center
Mon 09:39:01 PM 52.1000 -53.6500 56° Northeast 530 610 40,000  Level Gander Center
Mon 09:40:01 PM 52.1667 -53.4500 61° Northeast 530 610 40,000  Level Gander Center
Mon 09:41:01 PM 52.2333 -53.2167 65° Northeast 530 610 40,000  Level Gander Center
Mon 09:42:01 PM 52.2833 -52.9833 71° East 540 621 40,000  Level Gander Center
Mon 09:43:01 PM 52.3333 -52.7833 68° East 540 621 40,000  Level Gander Center
Mon 09:45:01 PM 52.4500 -52.3500 66° East 560 644 40,000  Level Gander Center
Mon 09:47:01 PM 52.5500 -51.8833 70° East 540 621 40,000  Level Gander Center
Mon 09:48:01 PM 52.6000 -51.6500 70° East 550 633 40,000  Level Gander Center
Mon 09:49:01 PM 52.6667 -51.3667 69° East 550 633 40,000  Level Gander Center
Mon 09:50:27 PM 52.7333 -51.0333 72° East 410 472 40,000  Level Gander Center
Mon 09:51:27 PM 52.7833 -50.8000 70° East 540 621 40,000  Level Gander Center
Mon 09:52:27 PM 52.8500 -50.5333 67° East 550 633 40,000  Level Gander Center
Mon 09:53:27 PM 52.9000 -50.3000 70° East 550 633 40,000  Level Gander Center
Mon 09:54:27 PM 52.9500 -50.0667 70° East 550 633 40,000  Level Gander Center
Mon 09:55:27 PM 53.0000 -49.8833 66° East 550 633 40,000 Level Gander Center
Mon 09:57:00 PM 53.0801 -49.5722 67° East  Level FlightAware Approximate
Mon 10:04:00 PM 53.4318 -48.1530 67° East  Level FlightAware Approximate
Mon 10:05:00 PM 53.4807 -47.9483 68° East  Level FlightAware Approximate
Mon 10:06:00 PM 53.5292 -47.7432 68° East  Level FlightAware Approximate
Mon 10:07:00 PM 53.5771 -47.5368 69° East  Level FlightAware Approximate
Mon 10:08:00 PM 53.6234 -47.3297 69° East  Level FlightAware Approximate
Mon 10:09:00 PM 53.6692 -47.1222 69° East  Level FlightAware Approximate
Mon 10:10:00 PM 53.7147 -46.9142 70° East  Level FlightAware Approximate
Mon 10:11:00 PM 53.7599 -46.7058 70° East  Level FlightAware Approximate
Mon 10:12:00 PM 53.8047 -46.4969 70° East  Level FlightAware Approximate
Mon 10:13:00 PM 53.8491 -46.2876 70° East  Level FlightAware Approximate
Mon 10:14:00 PM 53.8932 -46.0779 70° East  Level FlightAware Approximate
Mon 10:15:00 PM 53.9369 -45.8677 70° East  Level FlightAware Approximate
Mon 10:16:00 PM 53.9802 -45.6570 71° East  Level FlightAware Approximate
Mon 10:17:00 PM 54.0232 -45.4460 71° East  Level FlightAware Approximate
Mon 10:18:00 PM 54.0658 -45.2345 71° East  Level FlightAware Approximate
Mon 10:19:00 PM 54.1080 -45.0225 71° East  Level FlightAware Approximate
Mon 10:20:00 PM 54.1498 -44.8102 71° East  Level FlightAware Approximate
Mon 10:21:00 PM 54.1913 -44.5974 71° East  Level FlightAware Approximate
Mon 10:22:00 PM 54.2324 -44.3842 72° East  Level FlightAware Approximate
Mon 10:23:00 PM 54.2731 -44.1705 72° East  Level FlightAware Approximate
Mon 10:24:00 PM 54.3134 -43.9565 72° East  Level FlightAware Approximate
Mon 10:25:00 PM 54.3540 -43.7423 72° East  Level FlightAware Approximate
Mon 10:26:00 PM 54.3947 -43.5280 72° East  Level FlightAware Approximate
Mon 10:27:00 PM 54.4350 -43.3133 72° East  Level FlightAware Approximate
Mon 10:28:00 PM 54.4749 -43.0981 72° East  Level FlightAware Approximate
Mon 10:29:00 PM 54.5145 -42.8826 72° East  Level FlightAware Approximate
Mon 10:30:00 PM 54.5536 -42.6666 73° East  Level FlightAware Approximate
Mon 10:31:00 PM 54.5924 -42.4503 73° East  Level FlightAware Approximate
Mon 10:32:00 PM 54.6308 -42.2335 73° East  Level FlightAware Approximate
Mon 10:33:00 PM 54.6688 -42.0163 73° East  Level FlightAware Approximate
Mon 10:34:00 PM 54.7065 -41.7987 73° East  Level FlightAware Approximate
Mon 10:35:00 PM 54.7437 -41.5807 73° East  Level FlightAware Approximate
Mon 10:36:00 PM 54.7805 -41.3623 74° East  Level FlightAware Approximate
Mon 10:37:00 PM 54.8170 -41.1435 74° East  Level FlightAware Approximate
Mon 10:38:00 PM 54.8530 -40.9243 74° East  Level FlightAware Approximate
Mon 10:39:00 PM 54.8887 -40.7042 74° East  Level FlightAware Approximate
Mon 10:40:00 PM 54.9241 -40.4837 74° East  Level FlightAware Approximate
Mon 10:41:00 PM 54.9590 -40.2628 75° East  Level FlightAware Approximate
Mon 10:42:00 PM 54.9936 -40.0415 75° East  Level FlightAware Approximate
Mon 10:43:00 PM 55.0259 -39.8190 76° East  Level FlightAware Approximate
Mon 10:44:00 PM 55.0575 -39.5961 76° East  Level FlightAware Approximate
Mon 10:45:00 PM 55.0886 -39.3727 76° East  Level FlightAware Approximate
Mon 10:46:00 PM 55.1194 -39.1490 76° East  Level FlightAware Approximate
Mon 10:47:00 PM 55.1497 -38.9250 77° East  Level FlightAware Approximate
Mon 10:48:00 PM 55.1796 -38.7006 77° East  Level FlightAware Approximate
Mon 10:49:00 PM 55.2091 -38.4759 77° East  Level FlightAware Approximate
Mon 10:50:00 PM 55.2382 -38.2509 77° East  Level FlightAware Approximate
Mon 10:51:00 PM 55.2669 -38.0255 77° East  Level FlightAware Approximate
Mon 10:52:00 PM 55.2951 -37.7999 78° East  Level FlightAware Approximate
Mon 10:53:00 PM 55.3230 -37.5738 78° East  Level FlightAware Approximate
Mon 10:54:00 PM 55.3504 -37.3475 78° East  Level FlightAware Approximate
Mon 10:55:00 PM 55.3774 -37.1209 78° East  Level FlightAware Approximate
Mon 10:56:00 PM 55.4040 -36.8940 78° East  Level FlightAware Approximate
Mon 10:57:00 PM 55.4302 -36.6667 78° East  Level FlightAware Approximate
Mon 10:58:00 PM 55.4559 -36.4392 79° East  Level FlightAware Approximate
Mon 10:59:00 PM 55.4812 -36.2113 79° East  Level FlightAware Approximate
Mon 11:00:00 PM 55.5061 -35.9832 79° East  Level FlightAware Approximate
Mon 11:01:00 PM 55.5306 -35.7548 79° East  Level FlightAware Approximate
Mon 11:02:00 PM 55.5546 -35.5261 79° East  Level FlightAware Approximate
Mon 11:03:00 PM 55.5783 -35.2972 80° East  Level FlightAware Approximate
Mon 11:04:00 PM 55.6015 -35.0679 80° East  Level FlightAware Approximate
Mon 11:05:00 PM 55.6242 -34.8384 80° East  Level FlightAware Approximate
Mon 11:06:00 PM 55.6466 -34.6086 80° East  Level FlightAware Approximate
Mon 11:07:00 PM 55.6685 -34.3786 80° East  Level FlightAware Approximate
Mon 11:08:00 PM 55.6899 -34.1483 81° East  Level FlightAware Approximate
Mon 11:09:00 PM 55.7110 -33.9178 81° East  Level FlightAware Approximate
Mon 11:10:00 PM 55.7316 -33.6870 81° East  Level FlightAware Approximate
Mon 11:11:00 PM 55.7518 -33.4560 81° East  Level FlightAware Approximate
Mon 11:12:00 PM 55.7715 -33.2247 81° East  Level FlightAware Approximate
Mon 11:13:00 PM 55.7908 -32.9932 81° East  Level FlightAware Approximate
Mon 11:14:00 PM 55.8097 -32.7615 82° East  Level FlightAware Approximate
Mon 11:15:00 PM 55.8282 -32.5295 82° East  Level FlightAware Approximate
Mon 11:16:00 PM 55.8462 -32.2974 82° East  Level FlightAware Approximate
Mon 11:17:00 PM 55.8637 -32.0650 82° East  Level FlightAware Approximate
Mon 11:18:00 PM 55.8809 -31.8324 82° East  Level FlightAware Approximate
Mon 11:19:00 PM 55.8975 -31.5996 83° East  Level FlightAware Approximate
Mon 11:20:00 PM 55.9138 -31.3666 83° East  Level FlightAware Approximate
Mon 11:21:00 PM 55.9296 -31.1335 83° East  Level FlightAware Approximate
Mon 11:22:00 PM 55.9450 -30.9001 83° East  Level FlightAware Approximate
Mon 11:23:00 PM 55.9599 -30.6665 83° East  Level FlightAware Approximate
Mon 11:24:00 PM 55.9744 -30.4328 84° East  Level FlightAware Approximate
Mon 11:25:00 PM 55.9884 -30.1989 84° East  Level FlightAware Approximate
Mon 11:26:00 PM 55.9980 -29.9649 96° East  Level FlightAware Approximate
Mon 11:27:00 PM 55.9842 -29.7309 96° East  Level FlightAware Approximate
Mon 11:28:00 PM 55.9701 -29.4970 96° East  Level FlightAware Approximate
Mon 11:29:00 PM 55.9554 -29.2633 96° East  Level FlightAware Approximate
Mon 11:30:00 PM 55.9404 -29.0299 96° East  Level FlightAware Approximate
Mon 11:31:00 PM 55.9249 -28.7965 97° East  Level FlightAware Approximate
Mon 11:32:00 PM 55.9090 -28.5634 97° East  Level FlightAware Approximate
Mon 11:33:00 PM 55.8926 -28.3305 97° East  Level FlightAware Approximate
Mon 11:34:00 PM 55.8758 -28.0978 97° East  Level FlightAware Approximate
Mon 11:35:00 PM 55.8585 -27.8652 97° East  Level FlightAware Approximate
Mon 11:36:00 PM 55.8408 -27.6329 98° East  Level FlightAware Approximate
Mon 11:37:00 PM 55.8227 -27.4008 98° East  Level FlightAware Approximate
Mon 11:38:00 PM 55.8041 -27.1690 98° East  Level FlightAware Approximate
Mon 11:39:00 PM 55.7851 -26.9373 98° East  Level FlightAware Approximate
Mon 11:40:00 PM 55.7656 -26.7059 98° East  Level FlightAware Approximate
Mon 11:41:00 PM 55.7458 -26.4747 99° East  Level FlightAware Approximate
Mon 11:42:00 PM 55.7254 -26.2437 99° East  Level FlightAware Approximate
Mon 11:43:00 PM 55.7047 -26.0130 99° East  Level FlightAware Approximate
Mon 11:44:00 PM 55.6835 -25.7825 99° East  Level FlightAware Approximate
Mon 11:45:00 PM 55.6619 -25.5523 99° East  Level FlightAware Approximate
Mon 11:46:00 PM 55.6399 -25.3224 100° East  Level FlightAware Approximate
Mon 11:47:00 PM 55.6174 -25.0927 100° East  Level FlightAware Approximate
Mon 11:48:00 PM 55.5945 -24.8632 100° East  Level FlightAware Approximate
Mon 11:49:00 PM 55.5712 -24.6341 100° East  Level FlightAware Approximate
Mon 11:50:00 PM 55.5475 -24.4052 100° East  Level FlightAware Approximate
Mon 11:51:00 PM 55.5233 -24.1766 100° East  Level FlightAware Approximate
Mon 11:52:00 PM 55.4987 -23.9483 101° East  Level FlightAware Approximate
Mon 11:53:00 PM 55.4737 -23.7202 101° East  Level FlightAware Approximate
Mon 11:54:00 PM 55.4482 -23.4925 101° East  Level FlightAware Approximate
Mon 11:55:00 PM 55.4224 -23.2650 101° East  Level FlightAware Approximate
Mon 11:56:00 PM 55.3961 -23.0379 101° East  Level FlightAware Approximate
Mon 11:57:00 PM 55.3694 -22.8110 102° East  Level FlightAware Approximate
Mon 11:58:00 PM 55.3422 -22.5845 102° East  Level FlightAware Approximate
Mon 11:59:00 PM 55.3147 -22.3583 102° East  Level FlightAware Approximate
Tue 12:00:00 AM 55.2866 -22.1318 102° East  Level FlightAware Approximate
Tue 12:01:00 AM 55.2582 -21.9057 102° East  Level FlightAware Approximate
Tue 12:02:00 AM 55.2293 -21.6799 103° East  Level FlightAware Approximate
Tue 12:03:00 AM 55.2000 -21.4544 103° East  Level FlightAware Approximate
Tue 12:04:00 AM 55.1703 -21.2292 103° East  Level FlightAware Approximate
Tue 12:05:00 AM 55.1402 -21.0044 103° East  Level FlightAware Approximate
Tue 12:06:00 AM 55.1097 -20.7800 103° East  Level FlightAware Approximate
Tue 12:07:00 AM 55.0787 -20.5558 103° East  Level FlightAware Approximate
Tue 12:08:00 AM 55.0474 -20.3321 104° East  Level FlightAware Approximate
Tue 12:09:00 AM 55.0156 -20.1086 104° East  Level FlightAware Approximate
Tue 12:10:00 AM 54.9859 -19.8846 102° East  Level FlightAware Approximate
Tue 12:11:00 AM 54.9580 -19.6599 102° East  Level FlightAware Approximate
Tue 12:12:00 AM 54.9297 -19.4356 102° East  Level FlightAware Approximate
Tue 12:13:00 AM 54.9010 -19.2116 102° East  Level FlightAware Approximate
Tue 12:14:00 AM 54.8718 -18.9879 103° East  Level FlightAware Approximate
Tue 12:15:00 AM 54.8423 -18.7645 103° East  Level FlightAware Approximate
Tue 12:16:00 AM 54.8124 -18.5414 103° East  Level FlightAware Approximate
Tue 12:17:00 AM 54.7820 -18.3187 103° East  Level FlightAware Approximate
Tue 12:18:00 AM 54.7513 -18.0963 103° East  Level FlightAware Approximate
Tue 12:19:00 AM 54.7201 -17.8743 104° East  Level FlightAware Approximate
Tue 12:20:00 AM 54.6885 -17.6526 104° East  Level FlightAware Approximate
Tue 12:21:00 AM 54.6566 -17.4312 104° East  Level FlightAware Approximate
Tue 12:21:54 AM 54.8170 -14.2570 104° East 489 563 41,000  Level FlightAware ADS-B
Tue 12:22:00 AM 54.6242 -17.2102 104° East  Level FlightAware Approximate
Tue 12:22:34 AM 54.7800 -14.1060 113° Southeast 491 565 41,000  Level FlightAware ADS-B
Tue 12:23:14 AM 54.7440 -13.9660 114° Southeast 490 564 41,000  Level FlightAware ADS-B
Tue 12:23:59 AM 54.7010 -13.7960 114° Southeast 487 560 41,000  Level FlightAware ADS-B
Tue 12:24:39 AM 54.6640 -13.6510 114° Southeast 487 560 41,000  Level FlightAware ADS-B
Tue 12:25:19 AM 54.6280 -13.5110 114° Southeast 485 558 41,000  Level FlightAware ADS-B
Tue 12:25:59 AM 54.5920 -13.3700 114° Southeast 483 556 41,000  Level FlightAware ADS-B
Tue 12:26:39 AM 54.5540 -13.2270 115° Southeast 485 558 41,000  Level FlightAware ADS-B
Tue 12:27:20 AM 54.5170 -13.0850 114° Southeast 484 557 41,000  Level FlightAware ADS-B
Tue 12:28:18 AM 54.4670 -12.8950 114° Southeast 41,000  Level FlightAware ADS-B
Tue 12:29:15 AM 54.4140 -12.6970 115° Southeast 482 555 41,000  Level FlightAware ADS-B
Tue 12:29:53 AM 54.3750 -12.5500 114° Southeast 482 555 41,000  Level FlightAware ADS-B
Tue 12:30:33 AM 54.3360 -12.4090 115° Southeast 481 554 41,000  Level FlightAware ADS-B
Tue 12:31:19 AM 54.2930 -12.2480 115° Southeast 484 557 41,000  Level FlightAware ADS-B
Tue 12:32:04 AM 54.2490 -12.0900 115° Southeast 487 560 41,000  Level FlightAware ADS-B
Tue 12:32:44 AM 54.2120 -11.9540 115° Southeast 488 562 41,000  Level FlightAware ADS-B
Tue 12:33:24 AM 54.1740 -11.8180 115° Southeast 488 562 41,000  Level FlightAware ADS-B
Tue 12:34:11 AM 54.1290 -11.6570 115° Southeast 486 559 41,000  Level FlightAware ADS-B
Tue 12:34:49 AM 54.0910 -11.5200 115° Southeast 486 559 41,000  Level FlightAware ADS-B
Tue 12:35:29 AM 54.0510 -11.3800 116° Southeast 488 562 41,000  Level FlightAware ADS-B
Tue 12:36:14 AM 54.0080 -11.2260 115° Southeast 488 562 41,000  Level FlightAware ADS-B
Tue 12:36:54 AM 53.9670 -11.0860 116° Southeast 488 562 41,000  Level FlightAware ADS-B
Tue 12:37:40 AM 53.9240 -10.9360 116° Southeast 486 559 41,000  Level FlightAware ADS-B
Tue 12:38:19 AM 53.8840 -10.7960 116° Southeast 485 558 41,000  Level FlightAware ADS-B
Tue 12:38:59 AM 53.8450 -10.6620 116° Southeast 484 557 41,000  Level FlightAware ADS-B
Tue 12:39:44 AM 53.7990 -10.5070 117° Southeast 482 555 41,000  Level FlightAware ADS-B
Tue 12:40:24 AM 53.7590 -10.3700 116° Southeast 483 556 41,000  Level FlightAware ADS-B
Tue 12:41:10 AM 53.7130 -10.2170 117° Southeast 484 557 41,000  Level FlightAware ADS-B
Tue 12:41:50 AM 53.6720 -10.0790 117° Southeast 483 556 41,000  Level FlightAware ADS-B
Tue 12:42:34 AM 53.6270 -9.9300 117° Southeast 480 552 41,000  Level FlightAware ADS-B
Tue 12:43:14 AM 53.5870 -9.7970 117° Southeast 479 551 41,000  Level FlightAware ADS-B
Tue 12:43:54 AM 53.5460 -9.6620 117° Southeast 480 552 41,000  Level FlightAware ADS-B
Tue 12:44:34 AM 53.5060 -9.5310 117° Southeast 481 554 41,000  Level FlightAware ADS-B
Tue 12:45:14 AM 53.4640 -9.3940 117° Southeast 485 558 41,000  Level FlightAware ADS-B
Tue 12:45:55 AM 53.4230 -9.2630 118° Southeast 484 557 41,000  Level FlightAware ADS-B
Tue 12:46:30 AM 53.3860 -9.1420 117° Southeast 478 550 41,000  Level FlightAware ADS-B
Tue 12:47:05 AM 53.3500 -9.0260 117° Southeast 482 555 41,000  Level FlightAware ADS-B
Tue 12:47:14 AM 53.3396 -8.9943 117° Southeast 474 545 41,000  Level FlightAware UK
Tue 12:47:44 AM 53.3083 -8.8950 117° Southeast 472 543 41,000  Level FlightAware UK
Tue 12:47:51 AM 53.3030 -8.8770 117° Southeast 483 556 41,000  Level FlightAware ADS-B
Tue 12:48:36 AM 53.2570 -8.7330 118° Southeast 484 557 41,000  Level FlightAware ADS-B
Tue 12:49:14 AM 53.2141 -8.5976 118° Southeast 476 548 41,000  Level FlightAware UK
Tue 12:49:17 AM 53.2140 -8.5980 118° Southeast 485 558 41,000  Level FlightAware ADS-B
Tue 12:49:56 AM 53.1730 -8.4680 118° Southeast 484 557 41,000  Level FlightAware ADS-B
Tue 12:50:41 AM 53.1240 -8.3160 118° Southeast 483 556 41,000  Level FlightAware ADS-B
Tue 12:50:44 AM 53.1191 -8.3003 118° Southeast 472 543 41,000  Level FlightAware UK
Tue 12:51:14 AM 53.0876 -8.2020 118° Southeast 472 543 41,000  Level FlightAware UK
Tue 12:51:21 AM 53.0820 -8.1860 118° Southeast 482 555 41,000  Level FlightAware ADS-B
Tue 12:52:06 AM 53.0340 -8.0390 118° Southeast 484 557 41,000  Level FlightAware ADS-B
Tue 12:52:45 AM 52.9914 -7.9083 118° Southeast 480 552 41,000  Level FlightAware UK
Tue 12:52:47 AM 52.9920 -7.9100 118° Southeast 482 555 41,000  Level FlightAware ADS-B
Tue 12:53:43 AM 52.9300 -7.7210 118° Southeast 479 551 41,000  Level FlightAware ADS-B
Tue 12:53:45 AM 52.9276 -7.7137 118° Southeast 474 545 41,000  Level FlightAware UK
Tue 12:54:15 AM 52.8956 -7.6172 118° Southeast 476 548 41,000  Level FlightAware UK
Tue 12:54:23 AM 52.8910 -7.6030 118° Southeast 481 554 41,000  Level FlightAware ADS-B
Tue 12:55:04 AM 52.8470 -7.4730 118° Southeast 482 555 41,000  Level FlightAware ADS-B
Tue 12:55:15 AM 52.8315 -7.4242 118° Southeast 472 543 41,000  Level FlightAware UK
Tue 12:55:45 AM 52.7993 -7.3274 118° Southeast 476 548 41,000  Level FlightAware UK
Tue 12:55:47 AM 52.8030 -7.3390 118° Southeast 483 556 41,000  Level FlightAware ADS-B
Tue 12:56:30 AM 52.7540 -7.1950 119° Southeast 479 551 41,000  Level FlightAware ADS-B
Tue 12:57:13 AM 52.7080 -7.0580 119° Southeast 477 549 41,000  Level FlightAware ADS-B
Tue 12:57:15 AM 52.7020 -7.0398 119° Southeast 472 543 41,000  Level FlightAware UK
Tue 12:57:45 AM 52.6697 -6.9449 119° Southeast 472 543 41,000  Level FlightAware UK
Tue 12:57:51 AM 52.6680 -6.9420 119° Southeast 476 548 41,000  Level FlightAware ADS-B
Tue 12:58:39 AM 52.6150 -6.7870 119° Southeast 475 547 41,000  Level FlightAware ADS-B
Tue 12:58:45 AM 52.6053 -6.7561 119° Southeast 470 541 41,000  Level FlightAware UK
Tue 12:59:15 AM 52.5729 -6.6620 119° Southeast 470 541 41,000  Level FlightAware UK
Tue 12:59:18 AM 52.5740 -6.6670 119° Southeast 475 547 41,000  Level FlightAware ADS-B
Tue 01:00:00 AM 52.5280 -6.5340 120° Southeast 476 548 41,000  Level FlightAware ADS-B
Tue 01:00:41 AM 52.4870 -6.4170 120° Southeast 476 548 41,000  Level FlightAware ADS-B
Tue 01:00:45 AM 52.4750 -6.3797 120° Southeast 470 541 41,000  Level FlightAware UK
Tue 01:01:15 AM 52.4421 -6.2859 120° Southeast 470 541 41,000  Level FlightAware UK
Tue 01:01:28 AM 52.4290 -6.2490 120° Southeast 477 549 41,000  Level FlightAware ADS-B
Tue 01:02:08 AM 52.3840 -6.1220 120° Southeast 476 548 41,000  Level FlightAware ADS-B
Tue 01:02:45 AM 52.3431 -6.0053 120° Southeast 472 543 41,000  Level FlightAware UK
Tue 01:02:50 AM 52.3380 -5.9900 120° Southeast 473 544 41,000  Level FlightAware ADS-B
Tue 01:03:34 AM 52.2900 -5.8560 120° Southeast 471 542 41,000  Level FlightAware ADS-B
Tue 01:04:13 AM 52.2460 -5.7340 120° Southeast 472 543 41,000  Level FlightAware ADS-B
Tue 01:04:15 AM 52.2442 -5.7276 120° Southeast 466 536 41,000  Level FlightAware UK
Tue 01:04:45 AM 52.2111 -5.6358 120° Southeast 468 539 41,000  Level FlightAware UK
Tue 01:04:56 AM 52.2000 -5.6050 120° Southeast 473 544 41,000  Level FlightAware ADS-B
Tue 01:05:32 AM 52.1600 -5.4940 120° Southeast 474 545 41,000  Level FlightAware ADS-B
Tue 01:06:12 AM 52.1150 -5.3690 120° Southeast 474 545 41,000  Level FlightAware ADS-B
Tue 01:06:51 AM 52.0713 -5.2488 120° Southeast 470 541 41,000  Level FlightAware UK
Tue 01:07:00 AM 52.0620 -5.2230 120° Southeast 473 544 41,000  Level FlightAware ADS-B
Tue 01:07:32 AM 52.0250 -5.1230 121° Southeast 475 547 41,000  Level FlightAware ADS-B
Tue 01:08:12 AM 51.9860 -4.9970 117° Southeast 477 549 41,000  Level FlightAware ADS-B
Tue 01:08:55 AM 51.9540 -4.8500 109° East 479 551 41,000  Level FlightAware ADS-B
Tue 01:09:27 AM 51.9317 -4.7415 109° East 470 541 41,000  Level FlightAware UK
Tue 01:09:37 AM 51.9250 -4.7090 109° East 477 549 41,000  Level FlightAware ADS-B
Tue 01:10:20 AM 51.8940 -4.5680 110° East 477 549 41,000  Level FlightAware ADS-B
Tue 01:11:05 AM 51.8606 -4.4110 109° East 477 549 41,000  Level FlightAware ADS-B
Tue 01:11:42 AM 51.8360 -4.2970 109° East 477 549 41,000  Level FlightAware ADS-B
Tue 01:12:18 AM 51.8090 -4.1740 110° East 478 550 41,000  Level FlightAware ADS-B
Tue 01:12:58 AM 51.7790 -4.0360 109° East 478 550 41,000  Level FlightAware ADS-B
Tue 01:13:33 AM 51.7518 -3.9133 109° East 466 536 41,000  Level FlightAware UK
Tue 01:13:44 AM 51.7440 -3.8800 109° East 477 549 41,000  Level FlightAware ADS-B
Tue 01:14:32 AM 51.7110 -3.7300 109° East 478 550 41,000  Level FlightAware ADS-B
Tue 01:15:08 AM 51.6809 -3.5966 110° East 478 550 41,000  Level FlightAware ADS-B
Tue 01:15:48 AM 51.6513 -3.4654 110° East 477 549 41,000  Level FlightAware ADS-B
Tue 01:16:18 AM 51.6294 -3.3688 110° East 476 548 41,000  Level FlightAware ADS-B
Tue 01:16:33 AM 51.6176 -3.3157 110° East 477 549 41,000  Level FlightAware ADS-B
Tue 01:16:58 AM 51.6023 -3.2278 106° East 478 550 41,000  Level FlightAware ADS-B
Tue 01:17:29 AM 51.5891 -3.1263 102° East 479 551 41,000  Level FlightAware ADS-B
Tue 01:17:59 AM 51.5750 -3.0183 102° East 479 551 41,000  Level FlightAware ADS-B
Tue 01:18:29 AM 51.5609 -2.9128 102° East 479 551 41,000  Level FlightAware ADS-B
Tue 01:19:00 AM 51.5466 -2.8068 102° East 479 551 41,000  Level FlightAware ADS-B
Tue 01:19:31 AM 51.5316 -2.6968 102° East 479 551 41,000  Level FlightAware ADS-B
Tue 01:20:02 AM 51.5170 -2.5898 102° East 478 550 41,000  Level FlightAware ADS-B
Tue 01:20:34 AM 51.5026 -2.4850 102° East 477 549 41,000  Level FlightAware ADS-B
Tue 01:21:05 AM 51.4871 -2.3743 103° East 477 549 41,000  Level FlightAware ADS-B
Tue 01:21:36 AM 51.4722 -2.2668 103° East 477 549 41,000  Level FlightAware ADS-B
Tue 01:22:08 AM 51.4568 -2.1568 103° East 479 551 41,000  Level FlightAware ADS-B
Tue 01:22:38 AM 51.4419 -2.0519 103° East 480 552 41,000  Level FlightAware ADS-B
Tue 01:23:08 AM 51.4270 -1.9476 103° East 481 554 41,000  Level FlightAware ADS-B
Tue 01:23:40 AM 51.4111 -1.8363 103° East 481 554 41,000  Level FlightAware ADS-B
Tue 01:24:11 AM 51.3956 -1.7292 103° East 482 555 41,000  Level FlightAware ADS-B
Tue 01:24:41 AM 51.3804 -1.6244 103° East 483 556 41,000  Level FlightAware ADS-B
Tue 01:25:12 AM 51.3648 -1.5182 103° East 484 557 41,000  Level FlightAware ADS-B
Tue 01:25:43 AM 51.3487 -1.4095 103° East 485 558 41,000  Level FlightAware ADS-B
Tue 01:25:59 AM 51.3403 -1.3541 104° East 485 558 41,000  Level FlightAware ADS-B
Tue 01:26:08 AM 51.3349 -1.3232 106° East 484 557 41,000  Level FlightAware ADS-B
Tue 01:26:27 AM 51.3208 -1.2582 109° East 481 554 41,000  Level FlightAware ADS-B
Tue 01:26:40 AM 51.3094 -1.2158 113° Southeast 478 550 41,000  Level FlightAware ADS-B
Tue 01:26:48 AM 51.3013 -1.1918 118° Southeast 475 547 41,000  Level FlightAware ADS-B
Tue 01:27:19 AM 51.2648 -1.1008 123° Southeast 472 543 41,000  Level FlightAware ADS-B
Tue 01:27:49 AM 51.2292 -1.0126 123° Southeast 472 543 41,000  Level FlightAware ADS-B
Tue 01:28:20 AM 51.1937 -0.9245 123° Southeast 472 543 41,000  Level FlightAware ADS-B
Tue 01:28:50 AM 51.1572 -0.8347 123° Southeast 472 543 41,000  Level FlightAware ADS-B
Tue 01:29:22 AM 51.1208 -0.7457 123° Southeast 473 544 41,000 -369 Level FlightAware ADS-B
Tue 01:29:55 AM 51.0806 -0.6473 123° Southeast 473 544 40,600 -1,048 Descending FlightAware ADS-B
Tue 01:30:25 AM 51.0450 -0.5605 123° Southeast 468 539 39,900 -1,672 Descending FlightAware ADS-B
Tue 01:30:56 AM 51.0089 -0.4726 123° Southeast 458 527 38,900 -1,935 Descending FlightAware ADS-B
Tue 01:31:27 AM 50.9729 -0.3858 123° Southeast 449 517 37,900 -1,839 Descending FlightAware ADS-B
Tue 01:31:58 AM 50.9386 -0.3030 123° Southeast 440 506 37,000 -1,869 Descending FlightAware ADS-B
Tue 01:32:28 AM 50.9045 -0.2212 123° Southeast 435 501 36,000 -2,164 Descending FlightAware ADS-B
Tue 01:32:59 AM 50.8706 -0.1398 123° Southeast 436 502 34,800 -2,719 Descending FlightAware ADS-B
Tue 01:33:32 AM 50.8338 -0.0521 124° Southeast 434 499 33,100 -4,000 Descending FlightAware ADS-B
Tue 01:33:59 AM 50.8020 0.0227 124° Southeast 470 541 30,800 -4,378 Descending FlightAware ADS-B
Tue 01:34:09 AM 50.7889 0.0502 127° Southeast 471 542 30,400 -1,200 Descending FlightAware ADS-B
Tue 01:34:39 AM 50.7458 0.1258 132° Southeast 458 527 30,000 -632 Descending FlightAware ADS-B
Tue 01:35:06 AM 50.7037 0.1877 137° Southeast 459 528 29,800 -689 Descending FlightAware ADS-B
Tue 01:35:40 AM 50.6480 0.2600 141° Southeast 458 527 29,300 -923 Descending FlightAware ADS-B
Tue 01:36:11 AM 50.5987 0.3271 139° Southeast 453 521 28,800 -968 Descending FlightAware ADS-B
Tue 01:36:42 AM 50.5495 0.3912 140° Southeast 450 518 28,300 -968 Descending FlightAware ADS-B
Tue 01:37:13 AM 50.5020 0.4518 141° Southeast 448 516 27,800 -968 Descending FlightAware ADS-B
Tue 01:37:44 AM 50.4505 0.5170 141° Southeast 448 516 27,300 -984 Descending FlightAware ADS-B
Tue 01:38:14 AM 50.4019 0.5782 141° Southeast 445 512 26,800 -1,000 Descending FlightAware ADS-B
Tue 01:38:44 AM 50.3529 0.6396 141° Southeast 442 509 26,300 -738 Descending FlightAware ADS-B
Tue 01:39:19 AM 50.2981 0.7084 141° Southeast 440 506 26,000 -269 Descending FlightAware ADS-B
Tue 01:39:51 AM 50.2473 0.7722 141° Southeast 440 506 26,000  Level FlightAware ADS-B
Tue 01:40:24 AM 50.1939 0.8333 141° Southeast 446 513 26,000  Level FlightAware UK
Tue 01:40:31 AM 50.1810 0.8450 141° Southeast 438 504 26,000  Level FlightAware ADS-B
Tue 01:41:16 AM 50.1010 0.9110 152° Southeast 437 503 26,000 -506 Level FlightAware ADS-B
Tue 01:41:54 AM 50.0329 0.9675 152° Southeast 442 509 25,300 -947 Descending FlightAware UK
Tue 01:41:54 AM 50.0370 0.9640 152° Southeast 435 501 25,400 -2,500 Climbing FlightAware ADS-B
Tue 01:42:30 AM 49.9694 1.0213 152° Southeast 434 499 23,800 -2,500 Descending FlightAware UK
Tue 01:42:30 AM 49.9700 1.0210 152° Southeast 430 495 23,900 -2,000 Climbing FlightAware ADS-B
Tue 01:43:00 AM 49.9181 1.0634 152° Southeast 426 490 22,800 -2,143 Descending FlightAware UK
Tue 01:43:12 AM 49.8980 1.0810 152° Southeast 412 474 22,400 -2,654 Descending FlightAware ADS-B
Tue 01:43:52 AM 49.8350 1.1320 152° Southeast 378 435 20,500 -3,615 Descending FlightAware ADS-B
Tue 01:44:30 AM 49.7761 1.1809 152° Southeast 372 428 17,700 -4,364 Descending FlightAware UK
Tue 01:44:36 AM 49.7680 1.1880 152° Southeast 368 423 17,300 -4,000 Descending FlightAware ADS-B
Tue 01:45:06 AM 49.7224 1.2260 152° Southeast 360 414 15,300 -3,209 Descending FlightAware UK
Tue 01:45:19 AM 49.7080 1.2380 152° Southeast 357 411 15,000 -1,714 Descending FlightAware ADS-B
Tue 01:46:02 AM 49.6460 1.2890 152° Southeast 348 400 13,700 -1,747 Descending FlightAware ADS-B
Tue 01:46:38 AM 49.5930 1.3320 152° Southeast 344 396 12,700 -1,800 Descending FlightAware ADS-B
Tue 01:46:42 AM 49.5851 1.3385 152° Southeast 344 396 12,500 -1,800 Descending FlightAware UK
Tue 01:47:18 AM 49.5352 1.3791 152° Southeast 338 389 11,500 -1,538 Descending FlightAware UK
Tue 01:47:21 AM 49.5340 1.3800 152° Southeast 336 387 11,500 -1,463 Level FlightAware ADS-B
Tue 01:47:59 AM 49.4830 1.4210 152° Southeast 330 380 10,500 -1,125 Descending FlightAware ADS-B
Tue 01:48:41 AM 49.4270 1.4680 151° Southeast 310 357 10,000 -385 Descending FlightAware ADS-B
Tue 01:49:17 AM 49.3810 1.5050 152° Southeast 297 342 10,000  Level FlightAware ADS-B
Tue 01:49:41 AM 49.3540 1.5270 152° Southeast 290 334 10,000 -667 Level FlightAware ADS-B
Tue 01:50:11 AM 49.3190 1.5630 146° Southeast 295 339 9,400 -1,017 Descending FlightAware ADS-B
Tue 01:50:40 AM 49.2880 1.6010 141° Southeast 290 334 9,000 -400 Descending FlightAware ADS-B
Tue 01:51:11 AM 49.2590 1.6380 140° Southeast 291 335 9,000  Level FlightAware ADS-B
Tue 01:51:31 AM 49.2360 1.6670 141° Southeast 275 316 9,000  Level FlightAware ADS-B
Tue 01:51:56 AM 49.2120 1.6970 141° Southeast 269 310 9,000  Level FlightAware ADS-B
Tue 01:52:37 AM 49.1711 1.7492 141° Southeast 268 308 9,000  Level FlightAware UK
Tue 01:52:41 AM 49.1690 1.7520 141° Southeast 269 310 9,000  Level FlightAware ADS-B
Tue 01:52:55 AM 49.1560 1.7680 141° Southeast 269 310 9,000  Level FlightAware ADS-B
Tue 01:53:21 AM 49.1300 1.8010 140° Southeast 268 308 9,000  Level FlightAware ADS-B
Tue 01:53:35 AM 49.1180 1.8150 143° Southeast 268 308 9,000 -400 Level FlightAware ADS-B
Tue 01:54:06 AM 49.0880 1.8530 140° Southeast 260 299 8,700 -1,286 Descending FlightAware ADS-B
Tue 01:54:31 AM 49.0640 1.8840 140° Southeast 259 298 7,800 -2,073 Descending FlightAware ADS-B
Tue 01:55:01 AM 49.0380 1.9230 135° Southeast 253 291 6,800 -1,424 Descending FlightAware ADS-B
Tue 01:55:30 AM 49.0200 1.9670 122° Southeast 226 260 6,400 -889 Descending FlightAware ADS-B
Tue 01:55:55 AM 49.0070 2.0010 120° Southeast 224 258 6,000 -588 Descending FlightAware ADS-B
Tue 01:56:21 AM 48.9950 2.0310 121° Southeast 207 238 5,900 -588 Descending FlightAware ADS-B
Tue 01:56:46 AM 48.9810 2.0650 122° Southeast 198 228 5,500 -980 Descending FlightAware ADS-B
Tue 01:57:10 AM 48.9700 2.0960 118° Southeast 199 229 5,100 -900 Descending FlightAware ADS-B
Tue 01:57:26 AM 48.9680 2.1170 98° East 196 226 4,900 -585 Descending FlightAware ADS-B
Tue 01:57:51 AM 48.9700 2.1500 85° East 194 223 4,700 -218 Descending FlightAware ADS-B
Tue 01:58:21 AM 48.9720 2.1910 86° East 192 221 4,700 -203 Level FlightAware ADS-B
Tue 01:58:50 AM 48.9740 2.2270 85° East 197 227 4,500 -840 Descending FlightAware ADS-B
Tue 01:59:11 AM 48.9760 2.2610 85° East 202 232 4,000 -1,393 Descending FlightAware ADS-B
Tue 01:59:46 AM 48.9790 2.3110 85° East 195 224 3,200 -1,200 Descending FlightAware ADS-B
Tue 02:00:01 AM 48.9800 2.3310 86° East 191 220 3,000 -933 Descending FlightAware ADS-B
Tue 02:00:31 AM 48.9820 2.3700 86° East 176 203 2,500 -873 Descending FlightAware ADS-B
Tue 02:00:56 AM 48.9840 2.3990 84° East 158 182 2,200 -769 Descending FlightAware ADS-B
Tue 02:01:10 AM 48.9850 2.4150 85° East 147 169 2,000 -800 Descending FlightAware ADS-B
Tue 02:01:41 AM 48.9860 2.4440 87° East 134 154 1,600 -764 Descending FlightAware ADS-B
Tue 02:02:05 AM 48.9880 2.4680 83° East 128 147 1,300 -655 Descending FlightAware ADS-B
Tue 02:02:36 AM 48.9890 2.4950 87° East 126 145 1,000 -643 Descending FlightAware ADS-B
Tue 02:03:01 AM 48.9900 2.5160 86° East 126 145 700 -720 Descending FlightAware ADS-B
Tue 02:03:26 AM 48.9910 2.5390 86° East 128 147 400 -679 Descending FlightAware ADS-B
Tue 02:03:54 AM 48.9930 2.5640 83° East 137 158 100 -643 Descending FlightAware ADS-B
Tue 02:04:21 AM 48.9940 2.5890 87° East 86 99 -222 Descending FlightAware ADS-B
Tue 02:04:55 AM 48.9950 2.5990 81° East 19 22  Level FlightAware ADS-B
Tue 02:05:06 AM 48.9960 2.6000 33° Northeast 17 20  Level FlightAware ADS-B
Tue 02:05:21 AM 48.9970 2.6000 360° North 5 6  Level FlightAware ADS-B
Tue 02:07:34 AM 48.9980 2.6000 360° North 14 16  Level FlightAware ADS-B
Tue 02:08:03 AM 48.9990 2.6010 33° Northeast 6 7  Level FlightAware ADS-B
Tue 02:08:13 AM 49.0000 2.6010 360° North 7 8  Level FlightAware ADS-B
Tue 02:08:34 AM 49.0000 2.6000 270° West 9 10  Level FlightAware ADS-B
Tue 02:09:14 AM 49.0010 2.5960 291° West 19 22  Level FlightAware ADS-B
Tue 02:09:39 AM 49.0010 2.5930 270° West 22 25  Level FlightAware ADS-B
Tue 02:10:09 AM 49.0000 2.5880 253° West 14 16  Level FlightAware ADS-B
Tue 02:10:19 AM 49.0010 2.5880 360° North 11 13  Level FlightAware ADS-B
Tue 02:10:49 AM 49.0020 2.5880 360° North 9 10  Level FlightAware ADS-B
Tue 02:12:24 AM 49.0060 2.5870 351° North 6 7  Level FlightAware ADS-B
Tue 02:15:00 AM 49.0128 2.5500 141° Southeast  Level Estimated
Tue 02:16:00 AM 49.0128 2.5500 141° Southeast  Level Estimated
Tue 02:17:00 AM 49.0128 2.5500 141° Southeast  Level Estimated
Tue 02:18:00 AM 49.0128 2.5500 141° Southeast  Level Estimated
Tue 02:19:00 AM 49.0128 2.5500 141° Southeast  Level Estimated
Tue 02:20:00 AM 49.0128 2.5500 141° Southeast  Level Estimated
Tue 02:21:00 AM 49.0128 2.5500 141° Southeast  Level Estimated
Tue 02:22:00 AM 49.0128 2.5500 141° Southeast  Level Estimated
Tue 02:23:00 AM 49.0128 2.5500 141° Southeast  Level Estimated
Tue 02:24:00 AM 49.0128 2.5500 141° Southeast  Level Estimated

Login

Don't have an account? Register now (free) for customized features, flight alerts, and more!